Terminal Aerodrome Forecast
Issued by NWS Grand Forks, ND

Home | Current Version | Previous Version | Text Only | Print | Product List | Glossary Off
Versions: 1 2 3 4 5 6 7 8 9 10 11 12 13 14

653
FTUS43 KFGF 220520
TAFGFK
TAF
KGFK 220520Z 2206/2306 19010KT P6SM FEW250
     FM222200 21013G21KT P6SM SCT200
     FM230100 21010KT P6SM BKN110=

USA.gov is the U.S. government's official web portal to all federal, state and local government web resources and services.